sensor_id;sensor_type;location;lat;lon;timestamp;P1;durP1;ratioP1;P2;durP2;ratioP2
60241;SDS011;46103;52.076;113.488;2023-04-24T00:02:36;5.70;;;1.75;;
60241;SDS011;46103;52.076;113.488;2023-04-24T00:05:43;2.97;;;1.75;;
60241;SDS011;46103;52.076;113.488;2023-04-24T00:08:46;2.60;;;1.85;;
60241;SDS011;46103;52.076;113.488;2023-04-24T00:11:50;3.30;;;1.67;;
60241;SDS011;46103;52.076;113.488;2023-04-24T00:14:54;4.72;;;1.55;;
60241;SDS011;46103;52.076;113.488;2023-04-24T00:17:57;3.97;;;1.83;;
60241;SDS011;46103;52.076;113.488;2023-04-24T00:21:01;2.03;;;1.40;;
60241;SDS011;46103;52.076;113.488;2023-04-24T00:24:06;2.72;;;1.33;;
60241;SDS011;46103;52.076;113.488;2023-04-24T00:27:17;3.53;;;1.58;;
60241;SDS011;46103;52.076;113.488;2023-04-24T00:30:22;3.55;;;1.30;;
60241;SDS011;46103;52.076;113.488;2023-04-24T00:33:26;1.30;;;1.20;;
60241;SDS011;46103;52.076;113.488;2023-04-24T00:36:30;2.58;;;1.70;;
60241;SDS011;46103;52.076;113.488;2023-04-24T00:39:36;2.60;;;1.20;;
60241;SDS011;46103;52.076;113.488;2023-04-24T00:42:39;4.53;;;1.70;;
60241;SDS011;46103;52.076;113.488;2023-04-24T00:45:45;4.35;;;1.52;;
60241;SDS011;46103;52.076;113.488;2023-04-24T00:48:49;2.17;;;1.80;;
60241;SDS011;46103;52.076;113.488;2023-04-24T00:51:54;4.45;;;1.83;;
60241;SDS011;46103;52.076;113.488;2023-04-24T00:54:58;5.00;;;2.25;;
60241;SDS011;46103;52.076;113.488;2023-04-24T00:58:06;3.30;;;1.70;;
60241;SDS011;46103;52.076;113.488;2023-04-24T01:01:10;10.50;;;3.38;;
60241;SDS011;46103;52.076;113.488;2023-04-24T01:04:15;3.38;;;1.85;;
60241;SDS011;46103;52.076;113.488;2023-04-24T01:07:22;3.03;;;1.92;;
60241;SDS011;46103;52.076;113.488;2023-04-24T01:10:26;3.22;;;1.65;;
60241;SDS011;46103;52.076;113.488;2023-04-24T01:13:33;5.75;;;1.73;;
60241;SDS011;46103;52.076;113.488;2023-04-24T01:16:38;3.08;;;1.48;;
60241;SDS011;46103;52.076;113.488;2023-04-24T01:19:42;4.72;;;2.20;;
60241;SDS011;46103;52.076;113.488;2023-04-24T01:22:49;3.30;;;1.60;;
60241;SDS011;46103;52.076;113.488;2023-04-24T01:25:53;4.03;;;1.80;;
60241;SDS011;46103;52.076;113.488;2023-04-24T01:29:00;2.20;;;1.05;;
60241;SDS011;46103;52.076;113.488;2023-04-24T01:32:04;3.70;;;1.90;;
60241;SDS011;46103;52.076;113.488;2023-04-24T01:35:09;4.95;;;2.00;;
60241;SDS011;46103;52.076;113.488;2023-04-24T01:38:13;2.40;;;1.45;;
60241;SDS011;46103;52.076;113.488;2023-04-24T01:41:18;2.60;;;1.63;;
60241;SDS011;46103;52.076;113.488;2023-04-24T01:44:22;1.95;;;1.35;;
60241;SDS011;46103;52.076;113.488;2023-04-24T01:47:27;2.53;;;1.20;;
60241;SDS011;46103;52.076;113.488;2023-04-24T01:50:32;1.95;;;1.60;;
60241;SDS011;46103;52.076;113.488;2023-04-24T01:53:37;2.38;;;1.30;;
60241;SDS011;46103;52.076;113.488;2023-04-24T01:56:41;4.05;;;1.98;;
60241;SDS011;46103;52.076;113.488;2023-04-24T01:59:46;1.75;;;1.35;;
60241;SDS011;46103;52.076;113.488;2023-04-24T02:02:50;3.78;;;1.40;;
60241;SDS011;46103;52.076;113.488;2023-04-24T02:05:53;3.95;;;1.70;;
60241;SDS011;46103;52.076;113.488;2023-04-24T02:08:58;5.20;;;1.60;;
60241;SDS011;46103;52.076;113.488;2023-04-24T02:12:03;1.77;;;1.40;;
60241;SDS011;46103;52.076;113.488;2023-04-24T02:15:06;1.98;;;1.40;;
60241;SDS011;46103;52.076;113.488;2023-04-24T02:18:11;2.58;;;1.70;;
60241;SDS011;46103;52.076;113.488;2023-04-24T02:21:15;2.28;;;1.42;;
60241;SDS011;46103;52.076;113.488;2023-04-24T02:24:19;5.60;;;1.50;;
60241;SDS011;46103;52.076;113.488;2023-04-24T02:27:22;2.10;;;1.50;;
60241;SDS011;46103;52.076;113.488;2023-04-24T02:30:25;1.75;;;1.25;;
60241;SDS011;46103;52.076;113.488;2023-04-24T02:33:28;4.63;;;1.10;;
60241;SDS011;46103;52.076;113.488;2023-04-24T02:36:33;1.98;;;1.45;;
60241;SDS011;46103;52.076;113.488;2023-04-24T02:39:36;1.48;;;1.20;;
60241;SDS011;46103;52.076;113.488;2023-04-24T02:42:39;2.47;;;1.50;;
60241;SDS011;46103;52.076;113.488;2023-04-24T02:45:43;3.13;;;1.55;;
60241;SDS011;46103;52.076;113.488;2023-04-24T02:48:47;2.33;;;1.60;;
60241;SDS011;46103;52.076;113.488;2023-04-24T02:51:50;3.20;;;1.13;;
60241;SDS011;46103;52.076;113.488;2023-04-24T02:54:53;1.85;;;1.15;;
60241;SDS011;46103;52.076;113.488;2023-04-24T02:57:56;3.20;;;1.48;;
60241;SDS011;46103;52.076;113.488;2023-04-24T03:01:00;1.42;;;1.20;;
60241;SDS011;46103;52.076;113.488;2023-04-24T03:04:04;4.50;;;2.17;;
60241;SDS011;46103;52.076;113.488;2023-04-24T03:07:08;3.03;;;1.73;;
60241;SDS011;46103;52.076;113.488;2023-04-24T03:10:11;3.17;;;1.60;;
60241;SDS011;46103;52.076;113.488;2023-04-24T03:13:16;3.88;;;1.50;;
60241;SDS011;46103;52.076;113.488;2023-04-24T03:16:19;2.95;;;1.52;;
60241;SDS011;46103;52.076;113.488;2023-04-24T03:19:23;1.65;;;1.42;;
60241;SDS011;46103;52.076;113.488;2023-04-24T03:22:42;3.65;;;1.70;;
60241;SDS011;46103;52.076;113.488;2023-04-24T03:25:45;3.22;;;1.42;;
60241;SDS011;46103;52.076;113.488;2023-04-24T03:28:53;8.38;;;2.35;;
60241;SDS011;46103;52.076;113.488;2023-04-24T03:31:57;1.98;;;1.52;;
60241;SDS011;46103;52.076;113.488;2023-04-24T03:35:01;2.30;;;1.50;;
60241;SDS011;46103;52.076;113.488;2023-04-24T03:38:05;3.75;;;1.50;;
60241;SDS011;46103;52.076;113.488;2023-04-24T03:41:29;3.38;;;1.35;;
60241;SDS011;46103;52.076;113.488;2023-04-24T03:44:43;2.50;;;1.55;;
60241;SDS011;46103;52.076;113.488;2023-04-24T03:47:46;3.72;;;1.42;;
60241;SDS011;46103;52.076;113.488;2023-04-24T03:50:49;14.07;;;1.63;;
60241;SDS011;46103;52.076;113.488;2023-04-24T03:53:54;2.20;;;1.33;;
60241;SDS011;46103;52.076;113.488;2023-04-24T03:57:01;1.85;;;1.15;;
60241;SDS011;46103;52.076;113.488;2023-04-24T04:00:09;6.30;;;1.60;;
60241;SDS011;46103;52.076;113.488;2023-04-24T04:03:15;4.05;;;1.48;;
60241;SDS011;46103;52.076;113.488;2023-04-24T04:06:21;2.03;;;1.30;;
60241;SDS011;46103;52.076;113.488;2023-04-24T04:09:26;1.58;;;1.20;;
60241;SDS011;46103;52.076;113.488;2023-04-24T04:12:30;3.10;;;1.83;;
60241;SDS011;46103;52.076;113.488;2023-04-24T04:15:34;3.13;;;1.65;;
60241;SDS011;46103;52.076;113.488;2023-04-24T04:18:37;2.08;;;1.27;;
60241;SDS011;46103;52.076;113.488;2023-04-24T04:21:42;6.57;;;1.88;;
60241;SDS011;46103;52.076;113.488;2023-04-24T04:24:58;2.72;;;1.40;;
60241;SDS011;46103;52.076;113.488;2023-04-24T04:28:04;3.60;;;1.58;;
60241;SDS011;46103;52.076;113.488;2023-04-24T04:31:07;5.28;;;2.08;;
60241;SDS011;46103;52.076;113.488;2023-04-24T04:34:11;5.32;;;1.80;;
60241;SDS011;46103;52.076;113.488;2023-04-24T04:37:15;4.40;;;1.67;;
60241;SDS011;46103;52.076;113.488;2023-04-24T04:40:40;4.53;;;1.48;;
60241;SDS011;46103;52.076;113.488;2023-04-24T04:43:46;3.33;;;1.80;;
60241;SDS011;46103;52.076;113.488;2023-04-24T04:46:50;2.95;;;1.75;;
60241;SDS011;46103;52.076;113.488;2023-04-24T04:50:06;5.25;;;2.50;;
60241;SDS011;46103;52.076;113.488;2023-04-24T04:53:11;9.60;;;2.67;;
60241;SDS011;46103;52.076;113.488;2023-04-24T04:56:15;6.88;;;1.50;;
60241;SDS011;46103;52.076;113.488;2023-04-24T04:59:20;3.83;;;1.45;;
60241;SDS011;46103;52.076;113.488;2023-04-24T05:02:30;2.78;;;1.35;;
60241;SDS011;46103;52.076;113.488;2023-04-24T05:05:33;2.40;;;1.27;;
60241;SDS011;46103;52.076;113.488;2023-04-24T05:08:38;2.70;;;1.92;;
60241;SDS011;46103;52.076;113.488;2023-04-24T05:11:44;7.50;;;1.38;;
60241;SDS011;46103;52.076;113.488;2023-04-24T05:14:48;2.85;;;1.73;;
60241;SDS011;46103;52.076;113.488;2023-04-24T05:17:52;1.27;;;1.00;;
60241;SDS011;46103;52.076;113.488;2023-04-24T05:20:59;4.00;;;2.00;;
60241;SDS011;46103;52.076;113.488;2023-04-24T05:24:02;5.57;;;1.60;;
60241;SDS011;46103;52.076;113.488;2023-04-24T05:27:20;1.38;;;0.93;;
60241;SDS011;46103;52.076;113.488;2023-04-24T05:30:24;1.95;;;1.35;;
60241;SDS011;46103;52.076;113.488;2023-04-24T05:33:29;4.05;;;1.30;;
60241;SDS011;46103;52.076;113.488;2023-04-24T05:36:32;5.35;;;1.42;;
60241;SDS011;46103;52.076;113.488;2023-04-24T05:39:36;2.75;;;1.38;;
60241;SDS011;46103;52.076;113.488;2023-04-24T05:42:40;2.70;;;1.30;;
60241;SDS011;46103;52.076;113.488;2023-04-24T05:45:44;1.70;;;1.13;;
60241;SDS011;46103;52.076;113.488;2023-04-24T05:48:47;2.38;;;1.38;;
60241;SDS011;46103;52.076;113.488;2023-04-24T05:51:52;2.78;;;1.30;;
60241;SDS011;46103;52.076;113.488;2023-04-24T05:54:56;2.88;;;1.23;;
60241;SDS011;46103;52.076;113.488;2023-04-24T05:58:05;2.50;;;1.10;;
60241;SDS011;46103;52.076;113.488;2023-04-24T06:01:13;5.07;;;1.90;;
60241;SDS011;46103;52.076;113.488;2023-04-24T06:04:24;2.33;;;1.10;;
60241;SDS011;46103;52.076;113.488;2023-04-24T06:07:28;1.63;;;1.23;;
60241;SDS011;46103;52.076;113.488;2023-04-24T06:10:35;3.25;;;1.45;;
60241;SDS011;46103;52.076;113.488;2023-04-24T06:13:40;1.15;;;0.93;;
60241;SDS011;46103;52.076;113.488;2023-04-24T06:17:03;1.85;;;1.10;;
60241;SDS011;46103;52.076;113.488;2023-04-24T06:20:11;2.65;;;1.20;;
60241;SDS011;46103;52.076;113.488;2023-04-24T06:23:15;1.98;;;1.20;;
60241;SDS011;46103;52.076;113.488;2023-04-24T06:26:18;2.97;;;1.48;;
60241;SDS011;46103;52.076;113.488;2023-04-24T06:29:23;1.75;;;1.15;;
60241;SDS011;46103;52.076;113.488;2023-04-24T06:32:26;3.72;;;1.17;;
60241;SDS011;46103;52.076;113.488;2023-04-24T06:35:31;3.08;;;1.35;;
60241;SDS011;46103;52.076;113.488;2023-04-24T06:38:34;2.33;;;1.30;;
60241;SDS011;46103;52.076;113.488;2023-04-24T06:41:38;2.33;;;1.20;;
60241;SDS011;46103;52.076;113.488;2023-04-24T06:44:49;2.22;;;1.05;;
60241;SDS011;46103;52.076;113.488;2023-04-24T06:47:52;6.93;;;1.50;;
60241;SDS011;46103;52.076;113.488;2023-04-24T06:50:56;6.18;;;1.50;;
60241;SDS011;46103;52.076;113.488;2023-04-24T06:54:00;4.60;;;1.48;;
60241;SDS011;46103;52.076;113.488;2023-04-24T06:57:03;2.20;;;1.10;;
60241;SDS011;46103;52.076;113.488;2023-04-24T07:00:08;2.28;;;1.25;;
60241;SDS011;46103;52.076;113.488;2023-04-24T07:03:12;1.92;;;1.38;;
60241;SDS011;46103;52.076;113.488;2023-04-24T07:06:16;1.80;;;1.38;;
60241;SDS011;46103;52.076;113.488;2023-04-24T07:09:22;5.97;;;2.13;;
60241;SDS011;46103;52.076;113.488;2023-04-24T07:12:26;2.15;;;1.10;;
60241;SDS011;46103;52.076;113.488;2023-04-24T07:15:30;2.40;;;1.20;;
60241;SDS011;46103;52.076;113.488;2023-04-24T07:18:35;1.42;;;1.10;;
60241;SDS011;46103;52.076;113.488;2023-04-24T07:21:40;2.08;;;1.40;;
60241;SDS011;46103;52.076;113.488;2023-04-24T07:24:45;4.47;;;1.50;;
60241;SDS011;46103;52.076;113.488;2023-04-24T07:27:49;3.13;;;1.65;;
60241;SDS011;46103;52.076;113.488;2023-04-24T07:30:53;1.42;;;1.23;;
60241;SDS011;46103;52.076;113.488;2023-04-24T07:33:57;4.50;;;1.48;;
60241;SDS011;46103;52.076;113.488;2023-04-24T07:37:01;2.70;;;1.73;;
60241;SDS011;46103;52.076;113.488;2023-04-24T07:40:06;2.97;;;1.48;;
60241;SDS011;46103;52.076;113.488;2023-04-24T07:43:11;2.13;;;1.15;;
60241;SDS011;46103;52.076;113.488;2023-04-24T07:46:14;2.90;;;1.67;;
60241;SDS011;46103;52.076;113.488;2023-04-24T07:49:19;3.42;;;1.15;;
60241;SDS011;46103;52.076;113.488;2023-04-24T07:52:23;2.13;;;1.30;;
60241;SDS011;46103;52.076;113.488;2023-04-24T07:55:27;2.35;;;1.08;;
60241;SDS011;46103;52.076;113.488;2023-04-24T07:58:32;2.75;;;1.33;;
60241;SDS011;46103;52.076;113.488;2023-04-24T08:01:36;3.08;;;1.38;;
60241;SDS011;46103;52.076;113.488;2023-04-24T08:04:40;7.55;;;1.60;;
60241;SDS011;46103;52.076;113.488;2023-04-24T08:07:45;6.35;;;1.38;;
60241;SDS011;46103;52.076;113.488;2023-04-24T08:10:51;3.63;;;1.25;;
60241;SDS011;46103;52.076;113.488;2023-04-24T08:13:55;3.47;;;1.30;;
60241;SDS011;46103;52.076;113.488;2023-04-24T08:16:58;5.18;;;1.65;;
60241;SDS011;46103;52.076;113.488;2023-04-24T08:20:05;4.05;;;1.40;;
60241;SDS011;46103;52.076;113.488;2023-04-24T08:23:12;3.45;;;1.30;;
60241;SDS011;46103;52.076;113.488;2023-04-24T08:26:17;4.03;;;2.22;;
60241;SDS011;46103;52.076;113.488;2023-04-24T08:29:21;3.13;;;1.63;;
60241;SDS011;46103;52.076;113.488;2023-04-24T08:32:26;1.60;;;1.20;;
60241;SDS011;46103;52.076;113.488;2023-04-24T08:35:32;5.28;;;1.77;;
60241;SDS011;46103;52.076;113.488;2023-04-24T08:38:37;2.70;;;1.50;;
60241;SDS011;46103;52.076;113.488;2023-04-24T08:41:44;2.47;;;1.20;;
60241;SDS011;46103;52.076;113.488;2023-04-24T08:44:48;5.63;;;1.45;;
60241;SDS011;46103;52.076;113.488;2023-04-24T08:47:53;3.97;;;1.48;;
60241;SDS011;46103;52.076;113.488;2023-04-24T08:51:01;4.35;;;1.63;;
60241;SDS011;46103;52.076;113.488;2023-04-24T08:54:07;4.17;;;1.70;;
60241;SDS011;46103;52.076;113.488;2023-04-24T08:57:11;3.55;;;1.50;;
60241;SDS011;46103;52.076;113.488;2023-04-24T09:00:18;4.70;;;1.20;;
60241;SDS011;46103;52.076;113.488;2023-04-24T09:03:24;5.68;;;1.85;;
60241;SDS011;46103;52.076;113.488;2023-04-24T09:09:35;3.95;;;1.77;;
60241;SDS011;46103;52.076;113.488;2023-04-24T09:12:41;5.97;;;1.65;;
60241;SDS011;46103;52.076;113.488;2023-04-24T09:15:46;5.75;;;2.13;;
60241;SDS011;46103;52.076;113.488;2023-04-24T09:18:49;2.78;;;1.38;;
60241;SDS011;46103;52.076;113.488;2023-04-24T09:21:53;2.90;;;1.58;;
60241;SDS011;46103;52.076;113.488;2023-04-24T09:25:06;2.65;;;1.25;;
60241;SDS011;46103;52.076;113.488;2023-04-24T09:28:11;2.22;;;1.20;;
60241;SDS011;46103;52.076;113.488;2023-04-24T09:31:19;5.75;;;2.40;;
60241;SDS011;46103;52.076;113.488;2023-04-24T09:34:25;3.47;;;1.60;;
60241;SDS011;46103;52.076;113.488;2023-04-24T09:37:29;4.05;;;1.98;;
60241;SDS011;46103;52.076;113.488;2023-04-24T09:40:34;6.80;;;2.50;;
60241;SDS011;46103;52.076;113.488;2023-04-24T09:43:41;3.88;;;2.05;;
60241;SDS011;46103;52.076;113.488;2023-04-24T09:46:45;2.40;;;1.35;;
60241;SDS011;46103;52.076;113.488;2023-04-24T09:49:57;3.30;;;1.85;;
60241;SDS011;46103;52.076;113.488;2023-04-24T09:53:02;7.55;;;3.03;;
60241;SDS011;46103;52.076;113.488;2023-04-24T09:59:16;5.65;;;2.60;;
60241;SDS011;46103;52.076;113.488;2023-04-24T10:02:21;4.28;;;1.83;;
60241;SDS011;46103;52.076;113.488;2023-04-24T10:05:32;4.20;;;1.55;;
60241;SDS011;46103;52.076;113.488;2023-04-24T10:08:37;9.32;;;3.38;;
60241;SDS011;46103;52.076;113.488;2023-04-24T10:11:44;7.03;;;2.70;;
60241;SDS011;46103;52.076;113.488;2023-04-24T10:14:49;6.05;;;2.15;;
60241;SDS011;46103;52.076;113.488;2023-04-24T10:17:52;2.78;;;1.42;;
60241;SDS011;46103;52.076;113.488;2023-04-24T10:20:57;2.47;;;1.25;;
60241;SDS011;46103;52.076;113.488;2023-04-24T10:24:03;3.40;;;1.90;;
60241;SDS011;46103;52.076;113.488;2023-04-24T10:27:10;3.40;;;2.42;;
60241;SDS011;46103;52.076;113.488;2023-04-24T10:30:16;3.42;;;2.45;;
60241;SDS011;46103;52.076;113.488;2023-04-24T10:33:22;4.72;;;2.33;;
60241;SDS011;46103;52.076;113.488;2023-04-24T10:36:26;2.70;;;1.83;;
60241;SDS011;46103;52.076;113.488;2023-04-24T10:39:35;6.15;;;2.20;;
60241;SDS011;46103;52.076;113.488;2023-04-24T10:42:40;6.30;;;2.38;;
60241;SDS011;46103;52.076;113.488;2023-04-24T10:46:01;9.27;;;3.63;;
60241;SDS011;46103;52.076;113.488;2023-04-24T10:49:06;6.30;;;2.45;;
60241;SDS011;46103;52.076;113.488;2023-04-24T10:52:12;5.22;;;2.60;;
60241;SDS011;46103;52.076;113.488;2023-04-24T10:55:31;5.78;;;2.53;;
60241;SDS011;46103;52.076;113.488;2023-04-24T10:58:49;6.93;;;2.60;;
60241;SDS011;46103;52.076;113.488;2023-04-24T11:01:55;4.35;;;2.20;;
60241;SDS011;46103;52.076;113.488;2023-04-24T11:05:02;6.35;;;2.50;;
60241;SDS011;46103;52.076;113.488;2023-04-24T11:11:17;5.40;;;2.47;;
60241;SDS011;46103;52.076;113.488;2023-04-24T11:14:23;9.70;;;3.10;;
60241;SDS011;46103;52.076;113.488;2023-04-24T11:17:37;11.93;;;3.70;;
60241;SDS011;46103;52.076;113.488;2023-04-24T11:20:43;8.73;;;3.78;;
60241;SDS011;46103;52.076;113.488;2023-04-24T11:23:47;9.30;;;3.60;;
60241;SDS011;46103;52.076;113.488;2023-04-24T11:27:12;12.05;;;3.92;;
60241;SDS011;46103;52.076;113.488;2023-04-24T11:30:19;8.00;;;3.63;;
60241;SDS011;46103;52.076;113.488;2023-04-24T11:33:22;15.02;;;4.30;;
60241;SDS011;46103;52.076;113.488;2023-04-24T11:36:26;9.93;;;4.30;;
60241;SDS011;46103;52.076;113.488;2023-04-24T11:39:36;11.65;;;4.28;;
60241;SDS011;46103;52.076;113.488;2023-04-24T11:42:41;8.98;;;2.80;;
60241;SDS011;46103;52.076;113.488;2023-04-24T11:45:49;8.23;;;2.70;;
60241;SDS011;46103;52.076;113.488;2023-04-24T11:48:53;8.52;;;3.45;;
60241;SDS011;46103;52.076;113.488;2023-04-24T11:51:57;5.82;;;3.35;;
60241;SDS011;46103;52.076;113.488;2023-04-24T11:55:02;9.52;;;3.80;;
60241;SDS011;46103;52.076;113.488;2023-04-24T11:58:06;14.55;;;4.82;;
60241;SDS011;46103;52.076;113.488;2023-04-24T12:01:10;12.88;;;4.75;;
60241;SDS011;46103;52.076;113.488;2023-04-24T12:04:14;16.33;;;6.75;;
60241;SDS011;46103;52.076;113.488;2023-04-24T12:07:21;19.35;;;7.38;;
60241;SDS011;46103;52.076;113.488;2023-04-24T12:10:27;22.40;;;7.57;;
60241;SDS011;46103;52.076;113.488;2023-04-24T12:13:31;20.20;;;6.80;;
60241;SDS011;46103;52.076;113.488;2023-04-24T12:16:35;10.30;;;4.43;;
60241;SDS011;46103;52.076;113.488;2023-04-24T12:19:44;9.68;;;3.83;;
60241;SDS011;46103;52.076;113.488;2023-04-24T12:22:53;9.20;;;3.42;;
60241;SDS011;46103;52.076;113.488;2023-04-24T12:25:59;8.35;;;3.00;;
60241;SDS011;46103;52.076;113.488;2023-04-24T12:29:04;6.40;;;3.00;;
60241;SDS011;46103;52.076;113.488;2023-04-24T12:32:15;9.45;;;3.20;;
60241;SDS011;46103;52.076;113.488;2023-04-24T12:35:20;6.25;;;3.25;;
60241;SDS011;46103;52.076;113.488;2023-04-24T12:38:25;8.95;;;2.60;;
60241;SDS011;46103;52.076;113.488;2023-04-24T12:41:30;8.77;;;2.60;;
60241;SDS011;46103;52.076;113.488;2023-04-24T12:44:34;8.43;;;2.33;;
60241;SDS011;46103;52.076;113.488;2023-04-24T12:47:41;5.20;;;2.20;;
60241;SDS011;46103;52.076;113.488;2023-04-24T12:50:45;5.50;;;2.50;;
60241;SDS011;46103;52.076;113.488;2023-04-24T12:53:49;7.80;;;2.00;;
60241;SDS011;46103;52.076;113.488;2023-04-24T12:56:57;8.25;;;2.80;;
60241;SDS011;46103;52.076;113.488;2023-04-24T13:00:01;3.88;;;2.28;;
60241;SDS011;46103;52.076;113.488;2023-04-24T13:03:05;4.50;;;2.25;;
60241;SDS011;46103;52.076;113.488;2023-04-24T13:06:10;4.55;;;2.10;;
60241;SDS011;46103;52.076;113.488;2023-04-24T13:09:14;4.53;;;2.15;;
60241;SDS011;46103;52.076;113.488;2023-04-24T13:12:18;7.35;;;2.33;;
60241;SDS011;46103;52.076;113.488;2023-04-24T13:15:22;4.63;;;2.15;;
60241;SDS011;46103;52.076;113.488;2023-04-24T13:18:27;4.30;;;2.10;;
60241;SDS011;46103;52.076;113.488;2023-04-24T13:21:31;8.15;;;2.30;;
60241;SDS011;46103;52.076;113.488;2023-04-24T13:24:35;5.68;;;2.20;;
60241;SDS011;46103;52.076;113.488;2023-04-24T13:27:41;11.10;;;2.55;;
60241;SDS011;46103;52.076;113.488;2023-04-24T13:30:45;5.28;;;1.98;;
60241;SDS011;46103;52.076;113.488;2023-04-24T13:33:51;7.75;;;2.55;;
60241;SDS011;46103;52.076;113.488;2023-04-24T13:36:56;4.47;;;2.35;;
60241;SDS011;46103;52.076;113.488;2023-04-24T13:40:00;5.97;;;2.53;;
60241;SDS011;46103;52.076;113.488;2023-04-24T13:43:04;7.15;;;2.25;;
60241;SDS011;46103;52.076;113.488;2023-04-24T13:46:08;11.95;;;2.25;;
60241;SDS011;46103;52.076;113.488;2023-04-24T13:49:13;6.72;;;2.63;;
60241;SDS011;46103;52.076;113.488;2023-04-24T13:52:17;8.75;;;2.30;;
60241;SDS011;46103;52.076;113.488;2023-04-24T13:55:21;9.18;;;2.10;;
60241;SDS011;46103;52.076;113.488;2023-04-24T13:58:25;6.72;;;2.15;;
60241;SDS011;46103;52.076;113.488;2023-04-24T14:01:29;9.80;;;2.30;;
60241;SDS011;46103;52.076;113.488;2023-04-24T14:04:33;7.15;;;2.67;;
60241;SDS011;46103;52.076;113.488;2023-04-24T14:07:40;14.98;;;2.50;;
60241;SDS011;46103;52.076;113.488;2023-04-24T14:10:44;4.43;;;2.75;;
60241;SDS011;46103;52.076;113.488;2023-04-24T14:13:49;8.30;;;2.20;;
60241;SDS011;46103;52.076;113.488;2023-04-24T14:16:53;5.38;;;2.30;;
60241;SDS011;46103;52.076;113.488;2023-04-24T14:19:57;3.28;;;1.83;;
60241;SDS011;46103;52.076;113.488;2023-04-24T14:23:03;4.72;;;2.10;;
60241;SDS011;46103;52.076;113.488;2023-04-24T14:26:07;7.55;;;2.13;;
60241;SDS011;46103;52.076;113.488;2023-04-24T14:29:11;5.88;;;2.33;;
60241;SDS011;46103;52.076;113.488;2023-04-24T14:32:16;5.82;;;2.30;;
60241;SDS011;46103;52.076;113.488;2023-04-24T14:35:21;5.53;;;2.78;;
60241;SDS011;46103;52.076;113.488;2023-04-24T14:38:25;4.57;;;2.25;;
60241;SDS011;46103;52.076;113.488;2023-04-24T14:41:31;6.80;;;2.20;;
60241;SDS011;46103;52.076;113.488;2023-04-24T14:44:36;5.07;;;1.65;;
60241;SDS011;46103;52.076;113.488;2023-04-24T14:47:39;2.50;;;1.52;;
60241;SDS011;46103;52.076;113.488;2023-04-24T14:50:43;5.43;;;1.60;;
60241;SDS011;46103;52.076;113.488;2023-04-24T14:53:48;5.07;;;1.92;;
60241;SDS011;46103;52.076;113.488;2023-04-24T14:56:52;4.13;;;1.90;;
60241;SDS011;46103;52.076;113.488;2023-04-24T14:59:56;6.45;;;2.20;;
60241;SDS011;46103;52.076;113.488;2023-04-24T15:03:01;5.38;;;2.30;;
60241;SDS011;46103;52.076;113.488;2023-04-24T15:06:05;5.65;;;1.92;;
60241;SDS011;46103;52.076;113.488;2023-04-24T15:09:09;5.40;;;2.13;;
60241;SDS011;46103;52.076;113.488;2023-04-24T15:12:13;5.38;;;2.28;;
60241;SDS011;46103;52.076;113.488;2023-04-24T15:15:17;2.10;;;1.70;;
60241;SDS011;46103;52.076;113.488;2023-04-24T15:18:22;4.60;;;2.20;;
60241;SDS011;46103;52.076;113.488;2023-04-24T15:21:26;4.28;;;1.70;;
60241;SDS011;46103;52.076;113.488;2023-04-24T15:24:29;4.35;;;2.40;;
60241;SDS011;46103;52.076;113.488;2023-04-24T15:27:43;6.32;;;2.15;;
60241;SDS011;46103;52.076;113.488;2023-04-24T15:30:47;6.15;;;3.00;;
60241;SDS011;46103;52.076;113.488;2023-04-24T15:33:52;7.20;;;3.22;;
60241;SDS011;46103;52.076;113.488;2023-04-24T15:36:55;29.65;;;9.45;;
60241;SDS011;46103;52.076;113.488;2023-04-24T15:39:58;78.28;;;21.73;;
60241;SDS011;46103;52.076;113.488;2023-04-24T15:43:02;55.40;;;17.48;;
60241;SDS011;46103;52.076;113.488;2023-04-24T15:46:06;42.33;;;12.05;;
60241;SDS011;46103;52.076;113.488;2023-04-24T15:49:11;43.35;;;12.77;;
60241;SDS011;46103;52.076;113.488;2023-04-24T15:52:14;30.17;;;9.32;;
60241;SDS011;46103;52.076;113.488;2023-04-24T15:55:18;16.45;;;5.05;;
60241;SDS011;46103;52.076;113.488;2023-04-24T15:58:23;13.65;;;5.35;;
60241;SDS011;46103;52.076;113.488;2023-04-24T16:01:26;16.35;;;6.38;;
60241;SDS011;46103;52.076;113.488;2023-04-24T16:04:29;11.60;;;3.80;;
60241;SDS011;46103;52.076;113.488;2023-04-24T16:07:33;16.25;;;5.45;;
60241;SDS011;46103;52.076;113.488;2023-04-24T16:10:38;15.48;;;5.10;;
60241;SDS011;46103;52.076;113.488;2023-04-24T16:13:41;87.93;;;31.02;;
60241;SDS011;46103;52.076;113.488;2023-04-24T16:16:45;80.30;;;24.98;;
60241;SDS011;46103;52.076;113.488;2023-04-24T16:19:49;93.32;;;30.23;;
60241;SDS011;46103;52.076;113.488;2023-04-24T16:22:53;91.32;;;33.83;;
60241;SDS011;46103;52.076;113.488;2023-04-24T16:25:57;104.82;;;34.25;;
60241;SDS011;46103;52.076;113.488;2023-04-24T16:29:01;122.05;;;38.88;;
60241;SDS011;46103;52.076;113.488;2023-04-24T16:32:04;78.60;;;27.08;;
60241;SDS011;46103;52.076;113.488;2023-04-24T16:35:09;86.63;;;29.08;;
60241;SDS011;46103;52.076;113.488;2023-04-24T16:38:13;84.53;;;28.08;;
60241;SDS011;46103;52.076;113.488;2023-04-24T16:41:16;74.72;;;25.63;;
60241;SDS011;46103;52.076;113.488;2023-04-24T16:44:20;67.35;;;23.90;;
60241;SDS011;46103;52.076;113.488;2023-04-24T16:47:23;73.07;;;26.85;;
60241;SDS011;46103;52.076;113.488;2023-04-24T16:50:28;43.13;;;14.52;;
60241;SDS011;46103;52.076;113.488;2023-04-24T16:53:31;59.10;;;20.10;;
60241;SDS011;46103;52.076;113.488;2023-04-24T16:56:35;34.00;;;11.00;;
60241;SDS011;46103;52.076;113.488;2023-04-24T16:59:39;35.05;;;11.45;;
60241;SDS011;46103;52.076;113.488;2023-04-24T17:02:43;45.08;;;15.07;;
60241;SDS011;46103;52.076;113.488;2023-04-24T17:05:50;42.42;;;14.70;;
60241;SDS011;46103;52.076;113.488;2023-04-24T17:08:54;43.70;;;15.75;;
60241;SDS011;46103;52.076;113.488;2023-04-24T17:11:58;42.72;;;14.85;;
60241;SDS011;46103;52.076;113.488;2023-04-24T17:15:01;52.50;;;16.92;;
60241;SDS011;46103;52.076;113.488;2023-04-24T17:18:05;48.22;;;16.25;;
60241;SDS011;46103;52.076;113.488;2023-04-24T17:21:09;61.42;;;20.02;;
60241;SDS011;46103;52.076;113.488;2023-04-24T17:24:13;58.85;;;20.15;;
60241;SDS011;46103;52.076;113.488;2023-04-24T17:27:17;57.05;;;18.02;;
60241;SDS011;46103;52.076;113.488;2023-04-24T17:30:21;60.08;;;19.50;;
60241;SDS011;46103;52.076;113.488;2023-04-24T17:33:25;54.90;;;19.13;;
60241;SDS011;46103;52.076;113.488;2023-04-24T17:36:30;55.85;;;19.30;;
60241;SDS011;46103;52.076;113.488;2023-04-24T17:39:33;55.22;;;18.50;;
60241;SDS011;46103;52.076;113.488;2023-04-24T17:42:37;55.65;;;19.20;;
60241;SDS011;46103;52.076;113.488;2023-04-24T17:45:45;47.55;;;18.27;;
60241;SDS011;46103;52.076;113.488;2023-04-24T17:48:48;49.03;;;16.85;;
60241;SDS011;46103;52.076;113.488;2023-04-24T17:51:53;54.53;;;17.60;;
60241;SDS011;46103;52.076;113.488;2023-04-24T17:54:56;56.75;;;18.65;;
60241;SDS011;46103;52.076;113.488;2023-04-24T17:58:00;46.88;;;18.10;;
60241;SDS011;46103;52.076;113.488;2023-04-24T18:01:05;50.92;;;18.38;;
60241;SDS011;46103;52.076;113.488;2023-04-24T18:04:08;55.33;;;20.23;;
60241;SDS011;46103;52.076;113.488;2023-04-24T18:07:13;51.30;;;18.50;;
60241;SDS011;46103;52.076;113.488;2023-04-24T18:10:17;46.03;;;18.38;;